Time;durP1;ratioP1;P1;durP2;ratioP2;P2;SDS_P1;SDS_P2;PMS_P1;PMS_P2;Temp;Humidity;BMP_temperature;BMP_pressure;BME280_temperature;BME280_humidity;BME280_pressure;Samples;Min_cycle;Max_cycle;Signal;HPM_P1;HPM_P2
2021/01/12 00:02:17;;;;;;;20.77;14.65;;;-0.10;99.90;;;;;;4935620;29;20040;-74
2021/01/12 00:04:43;;;;;;;21.00;14.63;;;-0.20;99.90;;;;;;4936143;29;20455;-75
2021/01/12 00:07:09;;;;;;;17.77;13.75;;;-0.20;99.90;;;;;;4937009;29;20038;-73
2021/01/12 00:09:34;;;;;;;19.85;13.77;;;-0.30;99.90;;;;;;4936263;29;20530;-72
2021/01/12 00:12:00;;;;;;;20.35;14.30;;;-0.20;99.90;;;;;;4936385;29;20036;-72
2021/01/12 00:14:35;;;;;;;18.48;14.20;;;-0.20;99.90;;;;;;4936065;29;20111;-72
2021/01/12 00:17:03;;;;;;;22.45;13.73;;;-0.20;99.90;;;;;;4935994;29;20396;-72
2021/01/12 00:19:29;;;;;;;19.88;12.98;;;-0.10;99.90;;;;;;4936215;29;20028;-72
2021/01/12 00:21:56;;;;;;;22.20;14.57;;;-0.10;99.90;;;;;;4935709;29;20066;-73
2021/01/12 00:24:21;;;;;;;18.73;13.48;;;-0.10;99.90;;;;;;4936586;29;20564;-73
2021/01/12 00:26:48;;;;;;;21.80;15.75;;;-0.30;99.90;;;;;;4939138;29;20055;-72
2021/01/12 00:29:14;;;;;;;20.08;12.90;;;-0.30;99.90;;;;;;4939713;29;20039;-75
2021/01/12 00:31:41;;;;;;;21.10;14.13;;;-0.30;99.90;;;;;;4939404;29;20034;-73
2021/01/12 00:34:07;;;;;;;22.80;14.88;;;-0.20;99.90;;;;;;4939918;29;20055;-72
2021/01/12 00:36:38;;;;;;;21.15;15.32;;;-0.10;99.90;;;;;;4940467;29;20028;-73
2021/01/12 00:39:04;;;;;;;20.08;14.07;;;-0.20;99.90;;;;;;4961661;28;20024;-74
2021/01/12 00:41:29;;;;;;;18.75;13.73;;;-0.20;99.90;;;;;;4955822;28;20098;-73
2021/01/12 00:43:55;;;;;;;22.20;13.10;;;-0.20;99.90;;;;;;4940899;29;20106;-73
2021/01/12 00:46:20;;;;;;;19.13;13.98;;;-0.20;99.90;;;;;;4941757;29;20046;-73
2021/01/12 00:48:46;;;;;;;17.10;13.50;;;-0.10;99.90;;;;;;4941827;29;20039;-73
2021/01/12 00:51:11;;;;;;;21.33;14.48;;;-0.10;99.90;;;;;;4940766;29;20035;-72
2021/01/12 00:53:37;;;;;;;19.15;14.35;;;0.00;99.90;;;;;;4940072;29;20030;-74
2021/01/12 00:56:11;;;;;;;22.50;14.43;;;0.00;99.90;;;;;;4939645;29;20031;-72
2021/01/12 00:58:37;;;;;;;17.73;13.02;;;0.00;99.90;;;;;;4942478;29;20107;-73
2021/01/12 01:01:02;;;;;;;19.70;14.07;;;0.00;99.90;;;;;;4942155;29;20031;-73
2021/01/12 01:03:28;;;;;;;21.08;14.50;;;0.00;99.90;;;;;;4956133;29;20110;-73
2021/01/12 01:05:53;;;;;;;20.30;14.25;;;0.00;99.90;;;;;;4941006;29;20035;-72
2021/01/12 01:08:19;;;;;;;17.67;13.60;;;0.00;99.90;;;;;;4941829;29;20396;-73
2021/01/12 01:10:44;;;;;;;20.52;14.30;;;0.00;99.90;;;;;;4972426;28;20032;-72
2021/01/12 01:13:10;;;;;;;17.15;12.52;;;0.00;99.90;;;;;;4942203;29;20550;-73
2021/01/12 01:15:36;;;;;;;18.92;14.55;;;0.00;99.90;;;;;;4940888;29;20036;-73
2021/01/12 01:18:01;;;;;;;18.73;13.30;;;0.10;99.90;;;;;;4938351;29;20028;-73
2021/01/12 01:20:27;;;;;;;19.42;12.05;;;0.10;99.90;;;;;;4939479;29;20032;-72
2021/01/12 01:22:52;;;;;;;19.48;13.60;;;0.20;99.90;;;;;;4938206;29;20353;-73
2021/01/12 01:25:18;;;;;;;20.67;12.90;;;0.20;99.90;;;;;;4954107;28;20063;-73
2021/01/12 01:27:44;;;;;;;19.42;12.52;;;0.20;99.90;;;;;;4939396;29;20028;-72
2021/01/12 01:30:10;;;;;;;19.10;12.88;;;0.20;99.90;;;;;;4938751;29;20043;-73
2021/01/12 01:32:36;;;;;;;24.20;13.02;;;0.20;99.90;;;;;;4938965;29;20396;-74
2021/01/12 01:35:01;;;;;;;19.73;12.43;;;0.20;99.90;;;;;;4939396;29;20043;-73
2021/01/12 01:37:28;;;;;;;18.95;13.38;;;0.20;99.90;;;;;;4938756;29;20063;-74
2021/01/12 01:39:54;;;;;;;16.00;12.52;;;0.20;99.90;;;;;;4955168;28;20055;-73
2021/01/12 01:42:20;;;;;;;18.88;13.40;;;0.30;99.90;;;;;;4938770;29;20042;-74
2021/01/12 01:44:45;;;;;;;14.05;11.82;;;0.50;99.40;;;;;;4938987;29;20043;-72
2021/01/12 01:47:11;;;;;;;17.38;11.95;;;0.50;99.90;;;;;;4939081;29;20078;-73
2021/01/12 01:49:36;;;;;;;20.90;11.80;;;0.50;95.20;;;;;;4938287;29;20038;-72
2021/01/12 01:52:02;;;;;;;16.95;11.85;;;0.50;99.90;;;;;;4937666;29;20181;-73
2021/01/12 01:54:29;;;;;;;17.15;11.60;;;0.40;99.90;;;;;;4938315;29;20095;-71
2021/01/12 01:56:54;;;;;;;14.18;11.02;;;0.50;99.90;;;;;;4938309;29;20023;-72
2021/01/12 01:59:20;;;;;;;14.98;11.00;;;0.40;99.90;;;;;;4952646;29;20035;-72
2021/01/12 02:01:45;;;;;;;15.07;11.13;;;0.50;99.90;;;;;;4938674;29;20039;-72
2021/01/12 02:04:11;;;;;;;14.82;11.25;;;0.50;99.90;;;;;;4936985;29;20127;-72
2021/01/12 02:06:38;;;;;;;17.60;11.55;;;0.50;99.90;;;;;;4942289;29;20070;-71
2021/01/12 02:09:19;;;;;;;14.25;11.05;;;0.50;99.90;;;;;;4952309;29;20020;-71
2021/01/12 02:11:52;;;;;;;14.30;11.18;;;0.50;99.90;;;;;;4939012;29;20035;-71
2021/01/12 02:14:20;;;;;;;15.48;10.75;;;0.50;99.90;;;;;;4938909;29;20031;-72
2021/01/12 02:16:47;;;;;;;15.43;10.43;;;0.60;99.90;;;;;;4938266;29;20024;-71
2021/01/12 02:19:22;;;;;;;12.50;9.45;;;0.70;99.90;;;;;;4938431;29;20050;-72
2021/01/12 02:21:51;;;;;;;13.88;10.25;;;0.70;99.90;;;;;;4939128;29;20503;-71
2021/01/12 02:24:17;;;;;;;11.90;9.38;;;0.60;99.90;;;;;;4941143;29;20573;-71
2021/01/12 02:26:43;;;;;;;15.27;10.25;;;0.70;99.90;;;;;;4938320;29;20036;-72
2021/01/12 02:29:08;;;;;;;12.73;9.57;;;0.70;99.90;;;;;;4938946;29;20232;-72
2021/01/12 02:31:34;;;;;;;10.57;8.75;;;0.70;99.90;;;;;;4953641;28;20047;-72
2021/01/12 02:34:07;;;;;;;14.13;9.02;;;0.70;99.90;;;;;;4938488;29;20024;-71
2021/01/12 02:36:34;;;;;;;14.23;10.10;;;0.70;99.90;;;;;;4938251;29;20034;-72
2021/01/12 02:39:01;;;;;;;11.95;9.23;;;0.80;99.90;;;;;;4969165;28;20028;-72
2021/01/12 02:41:33;;;;;;;10.85;8.65;;;0.80;99.90;;;;;;4938307;29;20054;-72
2021/01/12 02:43:59;;;;;;;12.48;9.63;;;0.70;99.90;;;;;;4937870;29;20035;-72
2021/01/12 02:46:25;;;;;;;11.75;8.40;;;0.70;99.90;;;;;;4937392;29;20032;-72
2021/01/12 02:48:51;;;;;;;14.18;8.43;;;0.70;99.90;;;;;;4938030;29;20642;-71
2021/01/12 02:51:17;;;;;;;14.02;8.43;;;0.80;99.90;;;;;;4938243;29;20038;-71
2021/01/12 02:53:42;;;;;;;12.88;9.98;;;0.80;99.90;;;;;;4938307;29;20028;-71
2021/01/12 02:56:08;;;;;;;10.98;8.95;;;0.80;99.90;;;;;;4952741;29;20032;-71
2021/01/12 02:58:33;;;;;;;10.65;8.27;;;0.80;99.90;;;;;;4938615;29;20396;-74
2021/01/12 03:00:59;;;;;;;10.05;8.57;;;0.90;99.90;;;;;;4939836;29;20039;-71
2021/01/12 03:03:25;;;;;;;10.50;8.35;;;0.90;99.90;;;;;;4953407;29;20019;-72
2021/01/12 03:05:50;;;;;;;9.80;7.65;;;0.90;99.90;;;;;;4936301;29;20479;-72
2021/01/12 03:08:16;;;;;;;10.50;7.60;;;0.90;99.90;;;;;;4937859;29;20063;-72
2021/01/12 03:10:42;;;;;;;11.77;7.53;;;1.00;99.90;;;;;;4937864;29;20460;-72
2021/01/12 03:13:07;;;;;;;9.48;8.13;;;0.90;99.90;;;;;;4938575;29;20047;-72
2021/01/12 03:15:36;;;;;;;10.60;8.70;;;1.00;99.90;;;;;;4938048;29;20026;-72
2021/01/12 03:18:01;;;;;;;13.02;8.77;;;1.00;99.90;;;;;;4939208;29;20023;-71
2021/01/12 03:20:27;;;;;;;8.70;7.55;;;1.10;99.90;;;;;;4945389;29;20039;-71
2021/01/12 03:22:53;;;;;;;10.93;8.32;;;1.10;99.90;;;;;;4947573;29;20534;-71
2021/01/12 03:25:20;;;;;;;9.93;8.18;;;1.20;99.90;;;;;;4954054;28;20114;-72
2021/01/12 03:27:49;;;;;;;9.60;7.57;;;1.20;99.90;;;;;;4940414;29;20051;-72
2021/01/12 03:30:16;;;;;;;9.27;7.53;;;1.10;99.90;;;;;;4942519;29;20028;-73
2021/01/12 03:32:42;;;;;;;8.95;7.32;;;1.10;99.90;;;;;;4949325;29;20027;-71
2021/01/12 03:35:09;;;;;;;11.30;9.00;;;1.20;99.90;;;;;;4957692;28;20020;-72
2021/01/12 03:37:35;;;;;;;10.85;7.95;;;1.20;99.90;;;;;;4953940;29;20046;-70
2021/01/12 03:40:03;;;;;;;8.18;6.65;;;1.20;99.90;;;;;;4947559;29;20110;-72
2021/01/12 03:42:28;;;;;;;8.95;7.22;;;1.30;99.90;;;;;;4937859;29;20123;-72
2021/01/12 03:44:54;;;;;;;8.18;7.10;;;1.30;99.90;;;;;;4937484;29;20472;-72
2021/01/12 03:47:20;;;;;;;8.75;6.68;;;1.40;99.90;;;;;;4953768;28;20082;-74
2021/01/12 03:49:45;;;;;;;9.40;7.93;;;1.30;99.90;;;;;;4940312;29;20035;-71
2021/01/12 03:52:11;;;;;;;8.00;6.43;;;1.40;99.90;;;;;;4938436;29;20026;-71
2021/01/12 03:54:37;;;;;;;8.63;7.10;;;1.40;99.90;;;;;;4940198;29;20024;-73
2021/01/12 03:57:02;;;;;;;8.25;6.70;;;1.30;99.90;;;;;;4939666;29;20052;-72
2021/01/12 03:59:28;;;;;;;9.45;6.50;;;1.40;99.90;;;;;;4946277;29;20392;-71
2021/01/12 04:01:53;;;;;;;8.40;6.50;;;1.40;99.90;;;;;;4971771;28;20031;-71
2021/01/12 04:04:19;;;;;;;8.02;5.68;;;1.40;99.90;;;;;;4956848;29;20059;-71
2021/01/12 04:06:45;;;;;;;8.90;6.13;;;1.40;99.90;;;;;;4956742;29;20019;-72
2021/01/12 04:09:11;;;;;;;7.70;5.95;;;1.50;99.90;;;;;;4955297;29;20091;-71
2021/01/12 04:11:37;;;;;;;6.75;5.50;;;1.60;99.90;;;;;;4955769;29;20020;-71
2021/01/12 04:14:03;;;;;;;6.00;5.25;;;1.60;99.90;;;;;;4972651;29;20028;-73
2021/01/12 04:16:29;;;;;;;6.57;5.68;;;1.60;99.90;;;;;;4955391;28;20027;-71
2021/01/12 04:18:55;;;;;;;8.15;6.55;;;1.60;99.90;;;;;;4957837;29;20016;-72
2021/01/12 04:21:20;;;;;;;8.40;6.63;;;1.60;99.90;;;;;;4957368;29;20039;-70
2021/01/12 04:23:46;;;;;;;8.18;6.45;;;1.60;99.90;;;;;;4957703;29;20063;-70
2021/01/12 04:26:11;;;;;;;7.40;6.05;;;1.50;99.90;;;;;;4957304;29;20292;-71
2021/01/12 04:28:37;;;;;;;7.78;6.22;;;1.60;99.90;;;;;;4958110;29;20035;-72
2021/01/12 04:31:03;;;;;;;8.32;6.05;;;1.60;99.90;;;;;;4956117;29;20063;-72
2021/01/12 04:33:28;;;;;;;8.25;6.68;;;1.60;99.90;;;;;;4956461;29;20067;-73
2021/01/12 04:35:54;;;;;;;8.43;6.28;;;1.70;99.90;;;;;;4951531;29;20027;-73
2021/01/12 04:38:19;;;;;;;8.57;7.00;;;1.60;99.90;;;;;;4959638;28;20103;-72
2021/01/12 04:40:46;;;;;;;7.75;6.32;;;1.60;99.90;;;;;;4942347;29;20027;-72
2021/01/12 04:43:12;;;;;;;7.63;5.90;;;1.60;99.90;;;;;;4942227;29;20058;-71
2021/01/12 04:45:39;;;;;;;8.93;6.93;;;1.60;99.90;;;;;;4940700;29;20046;-71
2021/01/12 04:48:05;;;;;;;8.00;6.43;;;1.70;99.90;;;;;;4946582;29;20031;-72
2021/01/12 04:50:31;;;;;;;6.75;5.88;;;1.80;99.90;;;;;;4945581;29;20032;-70
2021/01/12 04:52:56;;;;;;;9.98;5.80;;;1.70;99.90;;;;;;4954125;29;20028;-72
2021/01/12 04:55:22;;;;;;;8.20;6.03;;;1.80;99.90;;;;;;4955357;29;20095;-72
2021/01/12 04:57:49;;;;;;;7.30;6.10;;;1.80;99.90;;;;;;4937892;29;20020;-72
2021/01/12 05:00:23;;;;;;;6.78;5.88;;;1.80;99.90;;;;;;4935554;29;20028;-72
2021/01/12 05:03:06;;;;;;;6.90;6.05;;;1.80;99.90;;;;;;4936500;29;20031;-72
2021/01/12 05:05:32;;;;;;;8.18;5.88;;;1.70;99.90;;;;;;4936095;29;20488;-70
2021/01/12 05:08:02;;;;;;;6.95;6.00;;;1.80;99.90;;;;;;4936915;29;20024;-71
2021/01/12 05:10:30;;;;;;;6.75;5.95;;;1.80;99.90;;;;;;4935920;29;20543;-71
2021/01/12 05:12:58;;;;;;;6.43;5.53;;;1.70;99.90;;;;;;4938529;29;20036;-72
2021/01/12 05:15:25;;;;;;;8.70;6.30;;;1.70;99.90;;;;;;4953584;28;20167;-71
2021/01/12 05:17:54;;;;;;;7.85;6.15;;;1.70;99.90;;;;;;4938316;29;20500;-72
2021/01/12 05:20:25;;;;;;;10.35;7.05;;;1.60;99.90;;;;;;4939007;29;20028;-72
2021/01/12 05:23:14;;;;;;;9.10;7.07;;;1.70;99.90;;;;;;4939813;29;20027;-72
2021/01/12 05:25:41;;;;;;;8.63;6.88;;;1.70;99.90;;;;;;4939245;29;20846;-72
2021/01/12 05:28:09;;;;;;;7.65;6.75;;;1.70;99.90;;;;;;4970908;28;20456;-72
2021/01/12 05:30:35;;;;;;;7.93;5.97;;;1.70;99.90;;;;;;4938434;29;20392;-72
2021/01/12 05:33:01;;;;;;;9.10;6.47;;;1.60;99.90;;;;;;4954038;29;20028;-72
2021/01/12 05:35:30;;;;;;;9.52;6.93;;;1.70;99.90;;;;;;4953637;28;20579;-71
2021/01/12 05:38:04;;;;;;;8.65;6.53;;;1.60;99.90;;;;;;4920249;29;20491;-72
2021/01/12 05:40:36;;;;;;;9.52;7.05;;;1.70;99.90;;;;;;4925934;29;20036;-71
2021/01/12 05:43:11;;;;;;;9.77;7.80;;;1.70;99.90;;;;;;4953398;29;20036;-72
2021/01/12 05:45:39;;;;;;;15.82;6.88;;;1.80;99.90;;;;;;4937783;29;20123;-73
2021/01/12 05:48:09;;;;;;;8.65;6.65;;;1.70;99.90;;;;;;4939098;29;20016;-72
2021/01/12 05:50:35;;;;;;;8.75;7.18;;;1.70;99.90;;;;;;4938666;29;20019;-73
2021/01/12 05:53:15;;;;;;;7.50;5.97;;;1.70;99.90;;;;;;4939250;29;20066;-71
2021/01/12 05:55:43;;;;;;;10.18;7.03;;;1.80;99.90;;;;;;4934873;29;20543;-72
2021/01/12 05:58:19;;;;;;;14.95;10.05;;;1.90;99.90;;;;;;4938377;29;20042;-72
2021/01/12 06:00:47;;;;;;;9.73;7.28;;;1.90;99.90;;;;;;4938634;29;20051;-73
2021/01/12 06:03:15;;;;;;;9.05;6.57;;;1.90;99.90;;;;;;4938567;29;20389;-72
2021/01/12 06:05:44;;;;;;;8.60;6.85;;;1.90;99.90;;;;;;4938723;29;20036;-73
2021/01/12 06:08:13;;;;;;;9.45;6.50;;;1.90;99.90;;;;;;4938271;29;20039;-73
2021/01/12 06:10:41;;;;;;;8.05;6.10;;;1.90;99.90;;;;;;4937301;29;20455;-73
2021/01/12 06:13:12;;;;;;;8.48;7.45;;;1.90;1.00;;;;;;4939525;29;20388;-71
2021/01/12 06:15:41;;;;;;;9.13;6.72;;;1.90;1.00;;;;;;4942155;29;20038;-72
2021/01/12 06:18:11;;;;;;;8.27;7.07;;;2.00;1.00;;;;;;4960893;28;20062;-69
2021/01/12 06:21:11;;;;;;;7.03;5.55;;;2.10;1.00;;;;;;4959857;29;20020;-71
2021/01/12 06:23:44;;;;;;;7.93;5.60;;;2.20;1.00;;;;;;4959291;29;20027;-71
2021/01/12 06:26:12;;;;;;;9.43;5.30;;;2.20;1.00;;;;;;4947710;29;20054;-71
2021/01/12 06:28:40;;;;;;;8.20;5.82;;;2.20;1.00;;;;;;4940270;29;20024;-72
2021/01/12 06:31:08;;;;;;;6.88;5.50;;;2.20;1.00;;;;;;4941092;29;20031;-71
2021/01/12 06:33:33;;;;;;;6.72;5.32;;;2.20;1.00;;;;;;4939584;29;20468;-72
2021/01/12 06:36:01;;;;;;;7.07;6.22;;;2.20;1.00;;;;;;4953828;28;20055;-71
2021/01/12 06:38:28;;;;;;;7.45;5.10;;;2.10;1.00;;;;;;4938492;29;20024;-73
2021/01/12 06:40:58;;;;;;;7.38;5.68;;;2.10;1.00;;;;;;4953810;29;20031;-70
2021/01/12 06:43:25;;;;;;;7.63;6.43;;;2.10;1.00;;;;;;4957253;28;20036;-73
2021/01/12 06:45:52;;;;;;;6.72;5.28;;;2.00;1.00;;;;;;4941855;29;20059;-71
2021/01/12 06:48:19;;;;;;;7.20;6.28;;;2.10;1.00;;;;;;4936631;29;20032;-72
2021/01/12 06:50:46;;;;;;;5.90;5.13;;;2.10;1.00;;;;;;4938024;29;20044;-72
2021/01/12 06:53:13;;;;;;;7.03;5.70;;;2.10;1.00;;;;;;4953564;29;20484;-71
2021/01/12 06:55:39;;;;;;;7.45;6.65;;;2.20;1.00;;;;;;4939062;29;20312;-73
2021/01/12 06:58:09;;;;;;;8.35;5.63;;;2.10;1.00;;;;;;4938614;29;20020;-72
2021/01/12 07:00:38;;;;;;;6.93;5.77;;;2.20;1.00;;;;;;4938192;29;20026;-73
2021/01/12 07:03:08;;;;;;;8.27;6.20;;;2.20;1.00;;;;;;4938488;29;20032;-71
2021/01/12 07:05:45;;;;;;;7.78;5.68;;;2.20;1.00;;;;;;4937429;29;20035;-73
2021/01/12 07:08:12;;;;;;;7.22;5.90;;;2.20;1.00;;;;;;4936403;29;20031;-72
2021/01/12 07:10:47;;;;;;;7.70;6.00;;;2.20;1.00;;;;;;4938833;29;20035;-73
2021/01/12 07:13:14;;;;;;;7.28;5.15;;;2.30;99.90;;;;;;4937883;29;20027;-72
2021/01/12 07:15:47;;;;;;;6.65;5.25;;;2.30;99.90;;;;;;4938475;29;20030;-72
2021/01/12 07:18:14;;;;;;;8.45;6.03;;;2.30;1.00;;;;;;4935571;29;20034;-72
2021/01/12 07:20:41;;;;;;;7.00;5.68;;;2.30;1.00;;;;;;4937504;29;20042;-71
2021/01/12 07:23:08;;;;;;;7.22;5.80;;;2.30;1.00;;;;;;4936668;29;20043;-72
2021/01/12 07:25:35;;;;;;;7.35;5.15;;;2.40;1.00;;;;;;4937888;29;20043;-73
2021/01/12 07:28:05;;;;;;;6.32;5.32;;;2.30;1.00;;;;;;4937580;29;20396;-73
2021/01/12 07:30:32;;;;;;;7.32;5.47;;;2.30;1.00;;;;;;4951055;29;20044;-71
2021/01/12 07:33:03;;;;;;;6.82;4.70;;;2.40;1.00;;;;;;4937326;29;20074;-73
2021/01/12 07:35:30;;;;;;;5.53;4.53;;;2.40;1.00;;;;;;4934376;29;20397;-72
2021/01/12 07:37:56;;;;;;;7.78;5.50;;;2.40;1.00;;;;;;4918489;29;20032;-72
2021/01/12 07:40:22;;;;;;;7.43;4.85;;;2.40;1.00;;;;;;4938747;29;20473;-74
2021/01/12 07:42:52;;;;;;;5.90;4.85;;;2.40;1.00;;;;;;4937562;29;20028;-73
2021/01/12 07:45:20;;;;;;;5.13;4.27;;;2.50;1.00;;;;;;4937598;29;20028;-73
2021/01/12 07:47:54;;;;;;;7.15;5.57;;;2.50;1.00;;;;;;4936508;29;20686;-72
2021/01/12 07:50:21;;;;;;;6.30;5.20;;;2.60;1.00;;;;;;4934499;29;20074;-72
2021/01/12 07:52:47;;;;;;;6.15;4.68;;;2.60;1.00;;;;;;4935201;29;20756;-74
2021/01/12 07:55:13;;;;;;;6.70;5.05;;;2.60;1.00;;;;;;4939524;29;20070;-72
2021/01/12 07:57:40;;;;;;;5.50;4.55;;;2.60;1.00;;;;;;4945623;29;20027;-71
2021/01/12 08:00:11;;;;;;;7.40;5.15;;;2.60;1.00;;;;;;4946745;29;20050;-72
2021/01/12 08:02:38;;;;;;;13.38;5.25;;;2.60;1.00;;;;;;4975630;28;20042;-73
2021/01/12 08:05:06;;;;;;;6.45;4.95;;;2.60;1.00;;;;;;4940069;29;20032;-70
2021/01/12 08:07:32;;;;;;;6.30;5.05;;;2.60;1.00;;;;;;4937266;29;20373;-72
2021/01/12 08:09:59;;;;;;;6.13;5.00;;;2.60;1.00;;;;;;4936580;29;20034;-72
2021/01/12 08:12:25;;;;;;;6.68;4.82;;;2.70;1.00;;;;;;4934427;29;20024;-73
2021/01/12 08:14:51;;;;;;;5.38;4.40;;;2.70;1.00;;;;;;4932349;29;20094;-72
2021/01/12 08:17:22;;;;;;;5.97;4.47;;;2.70;1.00;;;;;;4934949;29;20388;-72
2021/01/12 08:19:48;;;;;;;;;;;2.80;1.00;;;;;;4924647;29;20506;-74
2021/01/12 08:22:17;;;;;;;5.25;4.40;;;2.90;1.00;;;;;;4930919;29;19910;-72
2021/01/12 08:24:44;;;;;;;6.18;4.93;;;2.90;1.00;;;;;;4936181;29;20032;-73
2021/01/12 08:27:10;;;;;;;6.53;4.80;;;2.90;1.00;;;;;;4951715;29;20086;-72
2021/01/12 08:29:35;;;;;;;5.35;4.32;;;2.90;1.00;;;;;;4939269;29;20028;-72
2021/01/12 08:32:07;;;;;;;5.15;4.18;;;2.90;1.00;;;;;;4937633;29;20036;-74
2021/01/12 08:34:53;;;;;;;4.95;3.90;;;3.00;1.00;;;;;;4936868;29;20032;-73
2021/01/12 08:37:21;;;;;;;5.32;4.38;;;3.00;1.00;;;;;;4937218;29;20031;-72
2021/01/12 08:39:49;;;;;;;4.18;3.67;;;3.00;1.00;;;;;;4951710;29;20027;-72
2021/01/12 08:42:18;;;;;;;3.92;3.38;;;3.10;1.00;;;;;;4936290;29;20054;-72
2021/01/12 08:44:44;;;;;;;7.47;3.40;;;3.10;1.00;;;;;;4935128;29;20122;-72
2021/01/12 08:47:10;;;;;;;3.35;2.75;;;3.10;1.00;;;;;;4938276;29;20095;-72
2021/01/12 08:49:36;;;;;;;4.13;3.20;;;3.10;1.00;;;;;;4942380;29;20036;-72
2021/01/12 08:52:04;;;;;;;6.80;3.88;;;3.20;1.00;;;;;;4941617;29;20026;-74
2021/01/12 08:54:31;;;;;;;4.57;3.65;;;3.30;1.00;;;;;;4939167;29;20428;-72
2021/01/12 08:57:01;;;;;;;4.32;3.42;;;3.30;1.00;;;;;;4947768;29;20183;-71
2021/01/12 08:59:34;;;;;;;4.00;3.10;;;3.30;1.00;;;;;;4959371;29;20028;-72
2021/01/12 09:02:01;;;;;;;4.88;3.50;;;3.30;1.00;;;;;;4951693;29;20035;-72
2021/01/12 09:04:28;;;;;;;5.10;2.65;;;3.30;1.00;;;;;;4942514;29;20383;-74
2021/01/12 09:07:05;;;;;;;4.90;2.50;;;3.30;1.00;;;;;;4942013;29;20038;-74
2021/01/12 09:09:31;;;;;;;4.75;2.95;;;3.30;1.00;;;;;;4937817;29;20028;-72
2021/01/12 09:12:00;;;;;;;4.30;2.75;;;3.40;1.00;;;;;;4929258;29;20027;-73
2021/01/12 09:14:30;;;;;;;4.55;3.00;;;3.30;1.00;;;;;;4944054;28;20046;-72
2021/01/12 09:17:03;;;;;;;3.60;2.53;;;3.50;1.00;;;;;;4941183;29;20028;-72
2021/01/12 09:19:39;;;;;;;3.70;2.38;;;3.40;1.00;;;;;;4923671;29;20305;-73
2021/01/12 09:22:15;;;;;;;2.78;2.13;;;3.50;1.00;;;;;;4956689;28;20511;-72
2021/01/12 09:24:51;;;;;;;2.30;1.60;;;3.50;1.00;;;;;;4938242;29;20055;-72
2021/01/12 09:27:21;;;;;;;1.95;1.75;;;3.60;1.00;;;;;;4938793;29;20123;-74
2021/01/12 09:29:48;;;;;;;2.10;1.67;;;3.60;1.00;;;;;;4941257;29;20507;-72
2021/01/12 09:32:32;;;;;;;2.33;1.55;;;3.60;1.00;;;;;;4935768;28;20656;-72
2021/01/12 09:34:59;;;;;;;1.92;1.13;;;3.60;1.00;;;;;;4938702;28;20039;-74
2021/01/12 09:37:25;;;;;;;1.55;1.13;;;3.70;1.00;;;;;;4937001;29;20035;-73
2021/01/12 09:39:55;;;;;;;5.88;2.28;;;3.70;1.00;;;;;;4938827;29;20027;-71
2021/01/12 09:42:24;;;;;;;1.65;1.08;;;3.80;1.00;;;;;;4938659;29;20058;-73
2021/01/12 09:44:51;;;;;;;1.15;0.98;;;3.90;1.00;;;;;;4938300;29;20440;-73
2021/01/12 09:47:17;;;;;;;2.08;1.50;;;3.80;1.00;;;;;;4937247;29;20175;-74
2021/01/12 09:49:42;;;;;;;1.10;0.95;;;3.80;1.00;;;;;;4937302;29;20051;-72
2021/01/12 09:52:08;;;;;;;1.55;1.08;;;3.80;12.50;;;;;;4938571;29;20119;-72
2021/01/12 09:54:34;;;;;;;2.15;1.13;;;3.70;31.30;;;;;;4937633;29;20034;-72
2021/01/12 09:57:00;;;;;;;1.10;1.00;;;3.70;37.10;;;;;;4938614;29;20043;-75
2021/01/12 09:59:25;;;;;;;1.38;1.20;;;3.60;75.30;;;;;;4937286;29;20083;-72
2021/01/12 10:01:55;;;;;;;0.77;0.77;;;3.60;96.60;;;;;;4939870;29;20028;-72
2021/01/12 10:04:21;;;;;;;1.52;1.00;;;3.50;99.90;;;;;;4937374;29;20143;-72
2021/01/12 10:06:47;;;;;;;1.20;1.00;;;3.50;99.90;;;;;;4939220;29;20059;-73
2021/01/12 10:09:12;;;;;;;1.27;1.00;;;3.40;99.90;;;;;;4938001;29;20027;-73
2021/01/12 10:11:38;;;;;;;1.08;0.98;;;3.40;99.90;;;;;;4938736;29;20070;-73
2021/01/12 10:14:03;;;;;;;1.42;0.95;;;3.40;99.90;;;;;;4938903;29;20028;-73
2021/01/12 10:16:29;;;;;;;2.40;1.10;;;3.40;99.90;;;;;;4939000;29;20549;-71
2021/01/12 10:18:54;;;;;;;1.65;1.20;;;3.30;99.90;;;;;;4954093;29;20024;-71
2021/01/12 10:21:20;;;;;;;1.83;1.40;;;3.30;99.90;;;;;;4937636;29;20420;-75
2021/01/12 10:23:46;;;;;;;1.13;0.85;;;3.30;99.90;;;;;;4953862;29;20102;-72
2021/01/12 10:26:16;;;;;;;2.30;1.00;;;3.20;99.90;;;;;;4936777;29;20122;-72
2021/01/12 10:28:41;;;;;;;1.33;1.00;;;3.30;99.90;;;;;;4937825;29;20032;-75
2021/01/12 10:31:10;;;;;;;0.80;0.80;;;3.20;99.90;;;;;;4936477;29;20058;-72
2021/01/12 10:33:35;;;;;;;0.82;0.82;;;3.20;99.90;;;;;;4937323;29;20023;-71
2021/01/12 10:36:01;;;;;;;3.10;1.10;;;3.20;99.90;;;;;;4937896;29;20155;-70
2021/01/12 10:38:29;;;;;;;2.25;0.98;;;3.30;99.90;;;;;;4938620;29;20392;-73
2021/01/12 10:40:54;;;;;;;2.70;1.10;;;3.40;99.90;;;;;;4938736;29;20039;-72
2021/01/12 10:43:20;;;;;;;3.40;0.93;;;3.30;99.90;;;;;;4936502;29;20035;-74
2021/01/12 10:45:45;;;;;;;2.78;0.90;;;3.30;99.90;;;;;;4952753;28;20054;-72
2021/01/12 10:48:11;;;;;;;1.95;0.70;;;3.30;99.90;;;;;;4937509;29;20114;-72
2021/01/12 10:50:36;;;;;;;0.70;0.70;;;3.40;99.90;;;;;;4937392;29;20511;-71
2021/01/12 10:53:02;;;;;;;0.93;0.63;;;3.30;99.90;;;;;;4952493;29;20031;-71
2021/01/12 10:55:28;;;;;;;1.20;0.80;;;3.40;99.90;;;;;;4937777;29;20027;-71
2021/01/12 10:57:53;;;;;;;1.17;0.80;;;3.40;99.90;;;;;;4937757;29;20028;-71
2021/01/12 11:00:20;;;;;;;0.82;0.70;;;3.40;99.90;;;;;;4938596;29;20036;-72
2021/01/12 11:02:45;;;;;;;0.80;0.65;;;3.40;99.90;;;;;;4953248;29;20028;-72
2021/01/12 11:05:11;;;;;;;0.98;0.73;;;3.40;99.90;;;;;;4937910;29;20354;-73
2021/01/12 11:07:40;;;;;;;1.15;0.70;;;3.40;99.90;;;;;;4951937;29;20087;-73
2021/01/12 11:10:07;;;;;;;1.02;0.60;;;3.40;99.90;;;;;;4938843;29;20159;-75
2021/01/12 11:12:33;;;;;;;0.50;0.50;;;3.40;99.90;;;;;;4945451;29;20023;-75
2021/01/12 11:14:59;;;;;;;2.33;0.77;;;3.50;99.90;;;;;;4955306;28;20046;-76
2021/01/12 11:17:24;;;;;;;0.68;0.68;;;3.40;99.90;;;;;;4953792;29;20440;-75
2021/01/12 11:19:50;;;;;;;3.30;1.00;;;3.40;99.90;;;;;;4938631;29;20392;-77
2021/01/12 11:22:16;;;;;;;0.65;0.55;;;3.40;99.90;;;;;;4935998;29;20488;-75
2021/01/12 11:24:42;;;;;;;0.70;0.70;;;3.40;99.90;;;;;;4936017;29;20443;-75
2021/01/12 11:27:08;;;;;;;1.13;1.08;;;3.40;99.90;;;;;;4936582;29;20092;-75
2021/01/12 11:29:34;;;;;;;1.50;0.77;;;3.40;99.90;;;;;;4937143;29;20522;-75
2021/01/12 11:31:59;;;;;;;2.90;0.70;;;3.50;99.90;;;;;;4939184;29;20515;-75
2021/01/12 11:34:26;;;;;;;1.10;0.75;;;3.40;99.90;;;;;;4940499;29;20036;-73
2021/01/12 11:36:51;;;;;;;0.88;0.65;;;3.40;99.90;;;;;;4939843;29;20028;-74
2021/01/12 11:39:18;;;;;;;1.40;0.75;;;3.50;99.90;;;;;;4939171;29;20457;-73
2021/01/12 11:41:48;;;;;;;1.38;0.73;;;3.50;99.90;;;;;;4939511;29;20038;-74
2021/01/12 11:44:14;;;;;;;0.80;0.65;;;3.60;99.90;;;;;;4937746;29;20035;-75
2021/01/12 11:46:39;;;;;;;4.28;2.40;;;3.70;99.90;;;;;;4937237;29;20107;-74
2021/01/12 11:49:05;;;;;;;1.48;0.63;;;3.60;99.90;;;;;;4938469;29;20115;-74
2021/01/12 11:51:49;;;;;;;1.33;0.80;;;3.60;99.90;;;;;;4936798;29;20090;-77
2021/01/12 11:54:15;;;;;;;0.68;0.50;;;3.60;99.90;;;;;;4938687;29;20066;-76
2021/01/12 11:56:47;;;;;;;1.75;0.50;;;3.70;99.90;;;;;;4925332;29;20027;-74
2021/01/12 11:59:12;;;;;;;1.33;0.68;;;3.60;99.90;;;;;;4937706;29;20412;-75
2021/01/12 12:01:42;;;;;;;2.22;0.60;;;3.50;99.90;;;;;;4934920;29;20031;-74
2021/01/12 12:04:08;;;;;;;0.47;0.40;;;3.50;99.90;;;;;;4936649;29;20477;-74
2021/01/12 12:06:33;;;;;;;0.60;0.60;;;3.60;99.90;;;;;;4936470;29;20035;-73
2021/01/12 12:08:59;;;;;;;1.10;0.70;;;3.60;99.90;;;;;;4936785;29;20516;-72
2021/01/12 12:11:26;;;;;;;1.98;0.60;;;3.60;99.90;;;;;;4952723;29;20023;-73
2021/01/12 12:13:51;;;;;;;1.35;0.80;;;3.60;99.90;;;;;;4937548;29;20476;-73
2021/01/12 12:16:18;;;;;;;0.60;0.60;;;3.60;99.90;;;;;;4938073;29;20106;-73
2021/01/12 12:18:44;;;;;;;0.95;0.70;;;3.60;99.90;;;;;;4952230;29;20067;-74
2021/01/12 12:21:16;;;;;;;0.57;0.50;;;3.70;99.90;;;;;;4939853;29;20142;-73
2021/01/12 12:23:43;;;;;;;1.58;0.82;;;3.70;99.90;;;;;;4944600;29;20045;-74
2021/01/12 12:26:15;;;;;;;0.85;0.50;;;3.60;99.90;;;;;;4943144;29;20032;-72
2021/01/12 12:28:42;;;;;;;0.93;0.63;;;3.60;99.90;;;;;;4941384;29;20032;-73
2021/01/12 12:31:12;;;;;;;1.42;1.23;;;3.70;99.90;;;;;;4942837;29;20040;-72
2021/01/12 12:33:38;;;;;;;0.50;0.50;;;3.70;99.90;;;;;;4942890;29;20126;-72
2021/01/12 12:36:15;;;;;;;0.38;0.38;;;3.70;99.90;;;;;;4958385;28;20279;-71
2021/01/12 12:38:44;;;;;;;2.10;0.50;;;3.70;99.90;;;;;;4942870;29;21568;-72
2021/01/12 12:41:15;;;;;;;1.13;0.50;;;3.70;99.90;;;;;;4942783;29;20046;-73
2021/01/12 12:43:42;;;;;;;0.52;0.43;;;3.60;99.90;;;;;;4934633;29;20028;-72
2021/01/12 12:46:08;;;;;;;1.65;0.80;;;3.70;99.90;;;;;;4957135;28;20066;-72
2021/01/12 12:48:35;;;;;;;0.40;0.40;;;3.60;99.90;;;;;;4942196;29;20036;-72
2021/01/12 12:51:01;;;;;;;0.47;0.47;;;3.60;99.90;;;;;;4951182;29;20083;-72
2021/01/12 12:53:29;;;;;;;1.65;0.55;;;3.60;99.90;;;;;;4946390;29;20055;-73
2021/01/12 12:55:54;;;;;;;1.67;1.05;;;3.60;99.90;;;;;;4944208;29;20107;-73
2021/01/12 12:58:20;;;;;;;2.95;0.63;;;3.50;99.90;;;;;;4942943;29;20063;-72